Time;durP1;ratioP1;P1;durP2;ratioP2;P2;SDS_P1;SDS_P2;PMS_P1;PMS_P2;Temp;Humidity;BMP_temperature;BMP_pressure;BME280_temperature;BME280_humidity;BME280_pressure;Samples;Min_cycle;Max_cycle;Signal;HPM_P1;HPM_P2
2023/04/10 00:00:15;;;;;;;;;79.33;63.67;;;;;8.81;54.63;99794.09;5120796;27;8875;-78
2023/04/10 00:03:04;;;;;;;;;81.25;61.75;;;;;8.64;55.51;99794.25;5086582;28;8851;-78
2023/04/10 00:05:33;;;;;;;;;76.50;58.50;;;;;8.69;55.15;99792.47;5065759;28;8855;-78
2023/04/10 00:08:04;;;;;;;;;67.75;55.75;;;;;8.45;55.90;99786.53;5064980;28;8863;-79
2023/04/10 00:10:33;;;;;;;;;73.75;58.50;;;;;8.47;55.58;99777.81;5065212;28;9746;-78
2023/04/10 00:13:03;;;;;;;;;71.75;57.50;;;;;8.22;56.55;99778.84;5048195;28;8867;-81
2023/04/10 00:15:32;;;;;;;;;72.25;56.75;;;;;8.30;56.59;99775.28;5048062;28;9588;-77
2023/04/10 00:18:00;;;;;;;;;71.75;56.75;;;;;8.21;57.11;99779.72;5064970;28;8840;-76
2023/04/10 00:20:29;;;;;;;;;70.00;54.00;;;;;8.30;56.69;99776.19;5044860;28;8906;-75
2023/04/10 00:22:58;;;;;;;;;65.00;53.50;;;;;8.37;56.48;99771.78;5052977;28;8862;-77
2023/04/10 00:25:28;;;;;;;;;68.75;55.50;;;;;8.33;56.49;99775.31;5065472;28;8887;-76
2023/04/10 00:27:57;;;;;;;;;69.25;57.00;;;;;8.37;56.74;99771.78;5065256;28;8918;-76
2023/04/10 00:30:26;;;;;;;;;71.25;55.75;;;;;8.24;56.79;99770.97;5068665;28;8857;-77
2023/04/10 00:32:55;;;;;;;;;70.25;58.75;;;;;8.11;57.02;99770.19;5034809;28;8872;-77
2023/04/10 00:35:24;;;;;;;;;69.75;56.00;;;;;7.94;58.01;99766.84;5051818;28;8962;-79
2023/04/10 00:37:54;;;;;;;;;74.75;57.25;;;;;7.96;57.76;99767.69;5085196;28;8915;-77
2023/04/10 00:40:22;;;;;;;;;63.25;50.50;;;;;8.06;57.39;99769.34;5067214;28;9642;-77
2023/04/10 00:42:53;;;;;;;;;73.50;59.25;;;;;8.09;57.72;99769.34;5067946;28;8913;-77
2023/04/10 00:45:22;;;;;;;;;72.00;55.00;;;;;7.90;58.40;99770.34;5050711;28;8858;-77
2023/04/10 00:47:51;;;;;;;;;68.25;52.50;;;;;7.95;58.20;99766.81;5051598;28;8865;-79
2023/04/10 00:50:21;;;;;;;;;72.00;54.50;;;;;7.86;58.16;99762.50;5035560;28;8903;-77
2023/04/10 00:52:50;;;;;;;;;70.25;56.75;;;;;7.98;57.33;99766.78;5051871;28;8853;-77
2023/04/10 00:55:19;;;;;;;;;65.50;52.75;;;;;7.99;58.00;99765.06;5085054;28;8901;-76
2023/04/10 00:57:48;;;;;;;;;63.75;49.75;;;;;7.93;57.17;99762.47;5018953;28;8857;-77
2023/04/10 01:00:19;;;;;;;;;69.50;55.50;;;;;7.99;57.27;99760.69;4998567;28;8875;-77
2023/04/10 01:02:49;;;;;;;;;63.25;51.50;;;;;8.11;56.86;99764.97;5048223;28;8852;-76
2023/04/10 01:05:18;;;;;;;;;69.75;52.75;;;;;8.09;56.62;99766.72;5032589;28;9751;-80
2023/04/10 01:07:59;;;;;;;;;69.00;54.50;;;;;8.32;56.03;99770.94;5035815;28;8848;-78
2023/04/10 01:10:36;;;;;;;;;70.75;55.50;;;;;8.31;55.76;99756.09;5052030;28;8974;-76
2023/04/10 01:13:15;;;;;;;;;66.25;50.75;;;;;8.37;55.52;99754.31;5074494;28;8851;-79
2023/04/10 01:15:52;;;;;;;;;67.25;53.50;;;;;8.47;55.14;99762.09;5091360;28;8867;-77
2023/04/10 01:18:26;;;;;;;;;60.25;49.75;;;;;8.29;55.71;99757.81;5067846;28;8826;-79
2023/04/10 01:20:57;;;;;;;;;71.00;51.25;;;;;8.19;55.29;99759.66;5069625;28;8942;-76
2023/04/10 01:24:05;;;;;;;;;64.75;51.25;;;;;8.51;54.43;99756.78;5052933;28;8957;-79
2023/04/10 01:26:56;;;;;;;;;66.00;52.75;;;;;8.62;54.60;99756.72;4989317;28;8895;-76
2023/04/10 01:29:30;;;;;;;;;66.50;53.00;;;;;8.57;54.26;99753.25;4973919;28;8873;-76
2023/04/10 01:32:03;;;;;;;;;63.25;50.75;;;;;8.44;54.15;99753.38;4970582;28;8930;-78
2023/04/10 01:34:37;;;;;;;;;55.00;45.75;;;;;8.36;54.73;99757.78;4982073;28;8865;-77
2023/04/10 01:37:12;;;;;;;;;59.50;46.50;;;;;8.29;54.88;99760.44;4965416;28;8864;-78
2023/04/10 01:39:43;;;;;;;;;64.00;53.50;;;;;8.43;54.16;99756.00;4958783;28;8961;-78
2023/04/10 01:42:15;;;;;;;;;61.75;47.75;;;;;8.54;53.98;99753.31;4937106;28;8968;-77
2023/04/10 01:44:47;;;;;;;;;65.00;53.25;;;;;8.46;53.76;99758.63;4950182;28;8864;-79
2023/04/10 01:47:17;;;;;;;;;62.25;49.75;;;;;8.50;53.64;99757.69;4934116;28;8884;-80
2023/04/10 01:49:49;;;;;;;;;67.25;52.75;;;;;8.62;53.63;99757.56;4938318;28;8847;-78
2023/04/10 01:52:20;;;;;;;;;64.00;51.50;;;;;8.60;53.60;99759.34;4956349;28;8863;-79
2023/04/10 01:54:58;;;;;;;;;64.50;50.25;;;;;8.53;53.72;99751.53;4946278;28;8847;-78
2023/04/10 01:57:35;;;;;;;;;55.75;47.50;;;;;8.60;53.42;99750.63;4931711;28;8854;-75
2023/04/10 02:00:07;;;;;;;;;65.75;50.75;;;;;8.70;53.31;99754.00;4933902;28;8858;-77
2023/04/10 02:02:42;;;;;;;;;65.50;52.50;;;;;8.72;53.51;99754.84;4932376;28;8950;-76
2023/04/10 02:05:12;;;;;;;;;61.75;50.00;;;;;8.73;52.86;99757.47;4992229;28;8893;-78
2023/04/10 02:07:46;;;;;;;;;60.00;48.25;;;;;8.86;52.96;99747.72;5008120;28;8993;-80
2023/04/10 02:10:22;;;;;;;;;60.75;50.25;;;;;8.77;53.35;99750.44;5018167;28;8889;-77
2023/04/10 02:12:55;;;;;;;;;55.75;45.75;;;;;8.75;53.32;99749.59;5031311;28;8878;-79
2023/04/10 02:15:31;;;;;;;;;68.00;53.00;;;;;8.73;53.30;99748.75;5031044;28;8870;-78
2023/04/10 02:18:03;;;;;;;;;59.25;48.25;;;;;8.69;53.12;99747.03;5046696;28;9728;-79
2023/04/10 02:20:33;;;;;;;;;65.75;48.75;;;;;8.73;53.05;99746.13;5028604;28;8882;-78
2023/04/10 02:23:04;;;;;;;;;69.50;53.25;;;;;8.83;53.10;99750.38;5053747;28;8842;-78
2023/04/10 02:25:33;;;;;;;;;59.75;49.00;;;;;8.85;52.58;99740.75;5104047;28;8869;-80
2023/04/10 02:28:04;;;;;;;;;62.00;48.75;;;;;8.92;52.63;99739.78;5085667;28;8854;-77
2023/04/10 02:30:35;;;;;;;;;64.50;48.75;;;;;8.77;52.78;99743.44;5018293;28;8851;-79
2023/04/10 02:33:04;;;;;;;;;61.00;49.50;;;;;8.78;52.60;99737.34;5085743;28;8932;-79
2023/04/10 02:35:34;;;;;;;;;63.50;50.00;;;;;8.88;52.51;99743.34;5067415;28;8846;-79
2023/04/10 02:38:04;;;;;;;;;62.75;48.25;;;;;8.93;52.45;99743.28;5085170;28;8959;-76
2023/04/10 02:40:37;;;;;;;;;59.75;47.25;;;;;8.88;52.43;99742.47;5071127;28;8843;-78
2023/04/10 02:43:14;;;;;;;;;64.25;49.50;;;;;8.82;52.64;99741.66;5088385;28;8948;-79
2023/04/10 02:45:45;;;;;;;;;64.50;51.25;;;;;8.78;52.52;99742.56;5088837;28;8835;-78
2023/04/10 02:48:20;;;;;;;;;62.50;50.25;;;;;8.76;52.91;99743.47;5071508;28;8871;-80
2023/04/10 02:50:58;;;;;;;;;65.50;48.50;;;;;8.81;52.91;99737.28;5105508;28;8874;-80
2023/04/10 02:53:29;;;;;;;;;58.25;44.75;;;;;8.86;52.52;99739.88;5071194;28;8859;-78
2023/04/10 02:56:01;;;;;;;;;60.75;48.75;;;;;8.88;52.67;99740.72;5088466;28;8859;-78
2023/04/10 02:58:30;;;;;;;;;63.25;50.00;;;;;8.77;53.33;99743.44;5105153;28;8856;-77
2023/04/10 03:01:03;;;;;;;;;62.50;49.00;;;;;8.81;53.08;99728.56;5038521;28;8909;-76
2023/04/10 03:03:52;;;;;;;;;59.75;47.25;;;;;8.79;53.03;99740.81;5074429;28;8866;-77
2023/04/10 03:06:31;;;;;;;;;65.50;52.00;;;;;8.72;53.37;99737.38;5051827;28;8854;-77
2023/04/10 03:08:59;;;;;;;;;61.50;47.75;;;;;8.77;52.86;99740.81;5067802;28;8883;-78
2023/04/10 03:11:29;;;;;;;;;57.50;46.75;;;;;8.82;53.13;99741.66;5067438;28;8886;-77
2023/04/10 03:13:58;;;;;;;;;69.00;54.25;;;;;8.86;53.17;99731.16;5067616;28;9691;-75
2023/04/10 03:16:28;;;;;;;;;67.50;53.00;;;;;8.87;52.95;99738.97;5084497;28;9600;-76
2023/04/10 03:18:57;;;;;;;;;64.25;53.75;;;;;8.84;52.81;99736.41;5101758;28;8846;-75
2023/04/10 03:21:27;;;;;;;;;64.00;49.25;;;;;8.83;52.80;99730.25;5084153;28;8862;-79
2023/04/10 03:23:56;;;;;;;;;56.00;45.50;;;;;8.84;53.08;99742.50;5067679;28;8854;-78
2023/04/10 03:26:26;;;;;;;;;62.75;46.25;;;;;8.68;53.03;99740.91;5065941;28;8952;-79
2023/04/10 03:28:55;;;;;;;;;62.00;50.50;;;;;8.56;53.58;99736.66;5032230;28;8887;-76
2023/04/10 03:31:24;;;;;;;;;63.00;51.50;;;;;8.61;53.05;99736.59;5063863;28;8833;-77
2023/04/10 03:33:57;;;;;;;;;60.25;49.75;;;;;8.67;53.27;99746.16;5051760;28;8869;-79
2023/04/10 03:36:27;;;;;;;;;61.75;50.00;;;;;8.77;52.71;99747.81;5084993;28;9623;-77
2023/04/10 03:38:56;;;;;;;;;61.00;50.50;;;;;8.73;53.13;99749.59;5018853;28;8854;-78
2023/04/10 03:41:25;;;;;;;;;62.25;49.25;;;;;8.69;52.74;99745.28;5025481;28;8848;-76
2023/04/10 03:43:54;;;;;;;;;62.75;51.25;;;;;8.55;52.73;99753.25;4977086;28;8824;-76
2023/04/10 03:46:24;;;;;;;;;50.50;42.25;;;;;8.59;53.39;99747.13;5008166;28;8856;-78
2023/04/10 03:48:53;;;;;;;;;73.50;59.50;;;;;8.62;53.27;99756.72;4993226;28;8986;-78
2023/04/10 03:51:25;;;;;;;;;73.25;57.00;;;;;8.73;53.13;99759.22;4961275;28;8874;-78
2023/04/10 03:53:54;;;;;;;;;63.50;51.50;;;;;8.57;52.99;99756.75;5000523;28;8868;-76
2023/04/10 03:56:24;;;;;;;;;64.25;49.50;;;;;8.53;53.04;99757.66;4994569;28;8841;-78
2023/04/10 03:58:52;;;;;;;;;61.00;49.50;;;;;8.54;53.35;99762.03;5009215;28;9737;-78
2023/04/10 04:01:23;;;;;;;;;67.00;52.25;;;;;8.57;53.55;99767.25;5027136;28;8855;-78
2023/04/10 04:04:06;;;;;;;;;64.00;52.25;;;;;8.57;53.30;99769.88;5042143;28;8890;-75
2023/04/10 04:06:55;;;;;;;;;58.25;47.25;;;;;8.61;53.14;99768.94;5008813;28;8875;-76
2023/04/10 04:09:46;;;;;;;;;60.75;49.75;;;;;8.62;53.14;99764.56;5025612;28;8836;-77
2023/04/10 04:12:20;;;;;;;;;62.50;50.25;;;;;8.64;53.16;99768.91;5057494;28;8892;-76
2023/04/10 04:15:02;;;;;;;;;63.00;49.25;;;;;8.62;53.15;99765.44;5069829;28;8883;-77
2023/04/10 04:18:10;;;;;;;;;60.50;50.25;;;;;8.65;53.53;99769.78;4991498;28;9083;-76
2023/04/10 04:20:47;;;;;;;;;66.25;54.25;;;;;8.74;53.15;99771.44;5008535;28;8984;-79
2023/04/10 04:23:37;;;;;;;;;68.50;55.00;;;;;8.83;53.06;99773.97;4966380;28;8939;-78
2023/04/10 04:26:10;;;;;;;;;65.25;54.50;;;;;8.87;52.98;99773.03;4960459;28;8902;-76
2023/04/10 04:29:15;;;;;;;;;66.25;53.75;;;;;8.83;53.09;99774.81;4985543;28;8873;-77
2023/04/10 04:32:05;;;;;;;;;76.50;60.50;;;;;8.89;53.12;99776.53;4985238;28;9647;-78
2023/04/10 04:34:53;;;;;;;;;78.50;63.25;;;;;8.78;53.22;99776.66;4984664;28;8854;-80
2023/04/10 04:37:42;;;;;;;;;70.50;56.75;;;;;8.69;53.68;99771.50;4985410;28;8983;-80
2023/04/10 04:40:20;;;;;;;;;62.00;51.50;;;;;8.35;53.83;99779.66;4971780;28;8827;-79
2023/04/10 04:43:03;;;;;;;;;58.25;48.50;;;;;8.42;53.88;99775.22;4969977;28;8929;-76
2023/04/10 04:45:51;;;;;;;;;64.50;50.75;;;;;8.37;54.57;99774.41;4970029;28;8865;-77
2023/04/10 04:48:52;;;;;;;;;64.00;52.25;;;;;8.37;54.17;99775.25;4962424;28;9684;-77
2023/04/10 04:51:37;;;;;;;;;60.25;50.50;;;;;8.32;54.70;99777.03;4950819;28;9018;-78
2023/04/10 04:54:10;;;;;;;;;59.25;49.25;;;;;8.31;54.28;99777.94;4950272;28;9591;-76
2023/04/10 04:56:52;;;;;;;;;62.75;51.75;;;;;8.27;54.69;99776.19;4938236;29;8951;-80
2023/04/10 04:59:31;;;;;;;;;62.75;50.00;;;;;8.29;54.89;99773.53;4930919;29;8880;-79
2023/04/10 05:02:22;;;;;;;;;62.50;50.75;;;;;8.31;55.13;99777.06;4897081;28;8890;-76
2023/04/10 05:05:05;;;;;;;;;58.75;48.75;;;;;8.41;54.61;99782.22;4969411;28;9000;-78
2023/04/10 05:07:54;;;;;;;;;60.50;49.00;;;;;8.56;54.80;99778.59;4934997;28;8865;-78
2023/04/10 05:10:49;;;;;;;;;66.00;52.50;;;;;8.67;54.39;99783.75;4911590;29;8911;-78
2023/04/10 05:13:38;;;;;;;;;60.75;47.75;;;;;8.61;54.31;99784.66;4930473;29;8878;-78
2023/04/10 05:16:21;;;;;;;;;64.75;49.25;;;;;8.59;54.10;99789.06;4931008;29;8885;-76
2023/04/10 05:18:58;;;;;;;;;63.25;50.25;;;;;8.73;54.19;99791.53;4929220;29;8975;-79
2023/04/10 05:21:48;;;;;;;;;65.50;54.25;;;;;8.62;54.11;99788.16;4884030;29;8861;-78
2023/04/10 05:24:35;;;;;;;;;55.00;46.00;;;;;8.50;54.38;99796.13;4917259;28;8867;-75
2023/04/10 05:27:24;;;;;;;;;67.00;53.25;;;;;8.59;54.71;99793.41;4948430;28;8966;-77
2023/04/10 05:30:28;;;;;;;;;60.50;49.75;;;;;8.62;54.46;99790.78;4949039;28;8867;-77
2023/04/10 05:33:10;;;;;;;;;63.00;51.25;;;;;8.50;54.42;99796.13;4951165;28;8888;-77
2023/04/10 05:36:00;;;;;;;;;56.25;45.25;;;;;8.55;53.95;99796.94;4952015;28;8866;-77
2023/04/10 05:38:38;;;;;;;;;63.25;50.25;;;;;8.58;54.38;99804.78;4965895;28;8870;-79
2023/04/10 05:41:13;;;;;;;;;58.50;47.50;;;;;8.61;53.81;99795.16;4953766;28;8858;-77
2023/04/10 05:44:02;;;;;;;;;63.00;51.25;;;;;8.61;53.89;99800.41;4979688;28;8852;-77
2023/04/10 05:48:07;;;;;;;;;59.50;48.50;;;;;8.86;53.42;99799.31;4916334;29;8896;-79
2023/04/10 05:51:27;;;;;;;;;64.25;53.25;;;;;8.06;54.21;99811.22;4895521;29;8876;-76
2023/04/10 05:54:39;;;;;;;;;65.00;51.75;;;;;8.46;54.33;99808.38;4900165;29;8877;-77
2023/04/10 05:58:06;;;;;;;;;58.00;49.00;;;;;8.64;54.21;99802.09;4882297;29;8897;-78
2023/04/10 06:01:06;;;;;;;;;55.25;47.25;;;;;8.81;53.48;99809.81;4919467;29;8871;-76
2023/04/10 06:03:56;;;;;;;;;58.75;50.25;;;;;8.81;52.46;99815.91;4925643;28;8875;-80
2023/04/10 06:09:35;;;;;;;;;61.50;50.00;;;;;8.69;53.71;99804.69;5091430;27;1361424;-78
2023/04/10 06:12:06;;;;;;;;;57.25;47.25;;;;;9.04;52.72;99801.72;5054259;28;8834;-76
2023/04/10 06:14:36;;;;;;;;;60.50;50.75;;;;;8.33;53.66;99801.50;5096811;27;8909;-77
2023/04/10 06:17:06;;;;;;;;;57.50;47.25;;;;;8.74;53.45;99800.25;5040399;27;8923;-78
2023/04/10 06:19:36;;;;;;;;;62.50;50.75;;;;;8.64;52.89;99802.97;5090148;27;8898;-77
2023/04/10 06:22:05;;;;;;;;;56.75;46.50;;;;;8.96;52.35;99806.19;5093794;28;8958;-76
2023/04/10 06:24:35;;;;;;;;;57.75;44.75;;;;;9.09;51.98;99805.16;5056083;27;8957;-76
2023/04/10 06:27:04;;;;;;;;;54.75;44.25;;;;;9.23;51.58;99810.25;5106121;27;8860;-77
2023/04/10 06:29:33;;;;;;;;;64.75;50.50;;;;;8.64;52.71;99804.72;5081569;28;8857;-79
2023/04/10 06:32:02;;;;;;;;;60.25;49.00;;;;;8.47;53.90;99812.72;5101657;28;8853;-75
2023/04/10 06:34:35;;;;;;;;;57.00;46.25;;;;;8.94;52.22;99810.56;5079212;28;8869;-77
2023/04/10 06:37:07;;;;;;;;;54.75;45.50;;;;;8.74;52.21;99814.25;5103253;27;8882;-76
2023/04/10 06:39:39;;;;;;;;;62.25;48.25;;;;;8.32;54.15;99824.19;5055789;27;9569;-80
2023/04/10 06:42:09;;;;;;;;;59.00;47.25;;;;;8.27;53.68;99818.97;5056418;27;8836;-78
2023/04/10 06:44:44;;;;;;;;;58.50;47.00;;;;;7.13;56.90;99823.84;5103643;28;9583;-78
2023/04/10 06:47:15;;;;;;;;;56.75;47.75;;;;;7.09;58.06;99829.97;5086770;28;8876;-77
2023/04/10 06:49:45;;;;;;;;;61.25;49.50;;;;;6.39;60.33;99829.13;5104118;27;8870;-76
2023/04/10 06:52:14;;;;;;;;;64.75;50.75;;;;;6.42;61.17;99823.91;5106949;27;8899;-76
2023/04/10 06:54:44;;;;;;;;;63.00;52.00;;;;;6.17;61.77;99823.03;5051701;28;8878;-77
2023/04/10 06:57:13;;;;;;;;;62.75;50.75;;;;;6.19;61.83;99839.56;5095328;27;8851;-77
2023/04/10 06:59:42;;;;;;;;;62.00;51.25;;;;;5.67;62.79;99842.88;5107978;28;8842;-77
2023/04/10 07:02:11;;;;;;;;;58.25;49.25;;;;;5.39;63.57;99847.09;5092985;27;9608;-76
2023/04/10 07:04:40;;;;;;;;;60.50;50.50;;;;;5.36;64.47;99843.59;5105822;27;8855;-79
2023/04/10 07:07:11;;;;;;;;;67.75;54.75;;;;;5.29;64.89;99850.50;5105036;28;8991;-77
2023/04/10 07:09:40;;;;;;;;;62.25;51.00;;;;;5.52;64.73;99841.06;5104925;28;8857;-78
2023/04/10 07:12:10;;;;;;;;;61.75;52.00;;;;;5.60;64.73;99837.63;5085809;27;8850;-78
2023/04/10 07:14:39;;;;;;;;;63.75;53.25;;;;;6.11;63.17;99838.66;5078946;28;9657;-76
2023/04/10 07:17:08;;;;;;;;;64.75;52.25;;;;;6.21;62.54;99840.41;5041940;27;8941;-75
2023/04/10 07:19:37;;;;;;;;;63.75;52.00;;;;;6.14;63.35;99843.88;5117621;28;8863;-77
2023/04/10 07:22:06;;;;;;;;;63.00;49.75;;;;;6.33;62.49;99839.56;5109599;28;8847;-77
2023/04/10 07:24:35;;;;;;;;;61.75;48.00;;;;;5.85;63.57;99843.78;5095009;28;8910;-79
2023/04/10 07:27:04;;;;;;;;;62.75;49.25;;;;;5.64;64.04;99852.41;5075912;28;8845;-77
2023/04/10 07:29:34;;;;;;;;;62.50;51.50;;;;;6.09;63.56;99843.84;5067463;28;8968;-77
2023/04/10 07:32:04;;;;;;;;;66.00;52.50;;;;;6.69;61.34;99843.06;5089060;28;8908;-77
2023/04/10 07:34:33;;;;;;;;;62.00;50.50;;;;;7.19;60.32;99843.88;5092044;28;9631;-79
2023/04/10 07:37:02;;;;;;;;;68.25;53.25;;;;;6.80;61.22;99849.16;5073737;28;8843;-77
2023/04/10 07:39:30;;;;;;;;;56.75;45.50;;;;;6.53;62.26;99850.03;5077528;28;8886;-78
2023/04/10 07:42:00;;;;;;;;;63.00;50.50;;;;;6.82;61.72;99847.41;5085229;28;8920;-77
2023/04/10 07:44:28;;;;;;;;;59.50;49.25;;;;;6.65;60.27;99860.47;5099748;28;8866;-79
2023/04/10 07:46:59;;;;;;;;;53.00;44.50;;;;;7.50;58.75;99851.66;5088082;28;8835;-81
2023/04/10 07:49:27;;;;;;;;;56.50;46.25;;;;;8.21;56.85;99845.19;5024854;28;8875;-76
2023/04/10 07:51:57;;;;;;;;;62.50;46.25;;;;;8.60;54.23;99851.06;5090670;28;8889;-79
2023/04/10 07:54:26;;;;;;;;;55.00;46.25;;;;;8.96;54.17;99840.25;5091512;28;8860;-77
2023/04/10 07:56:55;;;;;;;;;52.75;42.50;;;;;8.56;54.43;99851.09;5075052;28;8949;-77
2023/04/10 07:59:24;;;;;;;;;64.50;52.00;;;;;8.12;55.63;99850.50;5028691;28;9009;-75
2023/04/10 08:01:53;;;;;;;;;56.25;49.00;;;;;7.98;55.66;99860.16;5045920;28;8846;-78
2023/04/10 08:04:24;;;;;;;;;62.75;50.50;;;;;7.68;57.12;99849.84;5026706;28;8881;-80
2023/04/10 08:06:53;;;;;;;;;68.00;52.00;;;;;7.54;57.26;99859.47;5046333;28;8854;-77
2023/04/10 08:09:22;;;;;;;;;68.00;53.00;;;;;7.25;58.79;99852.59;5046264;28;8888;-78
2023/04/10 08:11:51;;;;;;;;;63.00;50.25;;;;;7.56;57.83;99847.25;5029413;28;8923;-76
2023/04/10 08:14:19;;;;;;;;;58.00;48.00;;;;;7.48;57.96;99851.66;5028457;28;8885;-78
2023/04/10 08:16:48;;;;;;;;;58.50;49.75;;;;;7.41;58.10;99849.94;5045555;28;8866;-78
2023/04/10 08:19:17;;;;;;;;;59.50;49.00;;;;;7.55;58.16;99855.13;5012363;28;8902;-77
2023/04/10 08:21:47;;;;;;;;;64.25;51.00;;;;;8.22;56.89;99848.69;5042062;28;8873;-78
2023/04/10 08:24:18;;;;;;;;;56.25;46.50;;;;;8.95;55.46;99844.66;5004201;28;8886;-76
2023/04/10 08:26:47;;;;;;;;;59.75;47.50;;;;;8.28;55.93;99846.00;5029470;28;8888;-78
2023/04/10 08:29:16;;;;;;;;;59.25;47.50;;;;;7.78;56.67;99858.53;5028454;28;8953;-77
2023/04/10 08:31:45;;;;;;;;;58.25;47.75;;;;;8.73;55.21;99851.81;5105762;28;8874;-76
2023/04/10 08:34:13;;;;;;;;;65.50;53.00;;;;;8.67;55.28;99853.59;5073875;28;8989;-76
2023/04/10 08:36:42;;;;;;;;;63.25;51.00;;;;;8.21;55.47;99855.69;5109021;28;8883;-78
2023/04/10 08:39:13;;;;;;;;;64.00;51.25;;;;;8.00;56.74;99856.66;5109384;28;8863;-77
2023/04/10 08:41:42;;;;;;;;;53.25;43.25;;;;;8.38;55.64;99854.72;5092071;28;8900;-75
2023/04/10 08:44:12;;;;;;;;;64.25;50.75;;;;;8.82;54.61;99838.63;5071634;28;8878;-77
2023/04/10 08:46:43;;;;;;;;;63.25;49.50;;;;;9.19;53.06;99848.75;5072920;28;8863;-77
2023/04/10 08:49:24;;;;;;;;;61.25;49.50;;;;;8.25;54.21;99851.25;5041000;28;8879;-74
2023/04/10 08:51:57;;;;;;;;;60.50;49.75;;;;;8.10;54.89;99852.25;5047945;28;8981;-76
2023/04/10 08:54:29;;;;;;;;;55.25;45.75;;;;;8.62;53.92;99840.56;5046124;28;9008;-77
2023/04/10 08:57:00;;;;;;;;;64.25;50.75;;;;;7.78;57.01;99845.44;5025290;28;8919;-76
2023/04/10 08:59:29;;;;;;;;;61.00;50.25;;;;;8.21;55.60;99844.31;5023155;28;8979;-78
2023/04/10 09:01:59;;;;;;;;;63.50;51.50;;;;;8.85;53.32;99837.72;5024971;28;8916;-79
2023/04/10 09:04:28;;;;;;;;;64.50;52.00;;;;;8.45;54.65;99838.94;5003803;28;8890;-78
2023/04/10 09:06:57;;;;;;;;;61.25;51.25;;;;;8.24;54.55;99853.03;5025697;28;8907;-78
2023/04/10 09:09:31;;;;;;;;;60.00;46.25;;;;;8.56;55.01;99849.34;5020290;28;8866;-75
2023/04/10 09:12:02;;;;;;;;;61.00;50.25;;;;;8.59;54.52;99843.19;5023783;28;8875;-82
2023/04/10 09:14:32;;;;;;;;;60.75;48.75;;;;;8.74;53.90;99842.19;5012066;28;9036;-78
2023/04/10 09:17:16;;;;;;;;;66.25;52.00;;;;;8.61;54.17;99839.69;5028651;28;8889;-77
2023/04/10 09:19:46;;;;;;;;;63.25;52.50;;;;;9.23;52.99;99832.13;5032786;28;8878;-78
2023/04/10 09:22:15;;;;;;;;;60.00;50.25;;;;;8.98;53.63;99836.72;5038138;28;8852;-78
2023/04/10 09:24:47;;;;;;;;;59.25;47.50;;;;;8.81;54.00;99831.66;5100420;28;8890;-76
2023/04/10 09:27:31;;;;;;;;;63.00;51.00;;;;;9.02;53.56;99829.72;5052963;28;8900;-76
2023/04/10 09:30:00;;;;;;;;;67.50;54.00;;;;;9.35;53.05;99825.88;5083878;28;8950;-76
2023/04/10 09:32:37;;;;;;;;;61.50;49.50;;;;;10.35;51.34;99816.66;5080293;28;8864;-79
2023/04/10 09:35:07;;;;;;;;;60.75;50.75;;;;;9.74;51.84;99815.78;5069484;28;8890;-78
2023/04/10 09:37:36;;;;;;;;;46.50;39.25;;;;;9.79;51.25;99821.84;5035963;28;8898;-80
2023/04/10 09:40:20;;;;;;;;;55.50;44.50;;;;;9.30;52.35;99809.28;5011687;28;8880;-78
2023/04/10 09:42:50;;;;;;;;;52.25;44.50;;;;;9.75;51.26;99812.28;5028332;28;8882;-77
2023/04/10 09:45:21;;;;;;;;;57.00;47.50;;;;;10.35;49.63;99807.94;5028318;28;8854;-77
2023/04/10 09:48:02;;;;;;;;;58.25;46.75;;;;;11.10;49.21;99793.47;5028353;28;8970;-79
2023/04/10 09:50:37;;;;;;;;;61.25;49.75;;;;;11.29;46.83;99804.50;5045203;28;8969;-77
2023/04/10 09:53:09;;;;;;;;;61.75;50.75;;;;;10.26;49.20;99803.66;5028260;28;8842;-78
2023/04/10 09:55:39;;;;;;;;;57.75;46.25;;;;;9.94;49.95;99801.53;4995796;28;8874;-76
2023/04/10 09:58:09;;;;;;;;;58.25;48.75;;;;;10.59;48.74;99797.00;5044611;28;8913;-79
2023/04/10 10:00:42;;;;;;;;;54.25;44.75;;;;;9.83;49.20;99804.28;5011226;28;8858;-81
2023/04/10 10:03:13;;;;;;;;;53.25;42.00;;;;;10.41;46.53;99797.31;5011176;28;8892;-77
2023/04/10 10:05:43;;;;;;;;;55.75;45.75;;;;;10.46;47.92;99799.84;5028127;28;9666;-79
2023/04/10 10:08:14;;;;;;;;;58.00;46.50;;;;;10.54;47.41;99790.09;5060252;28;8952;-75
2023/04/10 10:10:47;;;;;;;;;58.25;47.50;;;;;10.46;48.90;99792.81;5085942;28;8854;-76
2023/04/10 10:13:24;;;;;;;;;56.50;47.50;;;;;10.48;49.35;99796.31;5081403;28;8852;-80
2023/04/10 10:16:01;;;;;;;;;61.25;50.25;;;;;10.66;49.87;99792.50;5073783;28;9085;-77
2023/04/10 10:18:39;;;;;;;;;60.00;46.50;;;;;9.54;51.66;99796.78;5074633;28;8863;-77
2023/04/10 10:21:09;;;;;;;;;64.25;51.00;;;;;9.82;51.52;99792.94;5052091;28;8854;-78
2023/04/10 10:23:38;;;;;;;;;60.50;48.75;;;;;9.88;51.37;99793.75;5036933;28;8854;-78
2023/04/10 10:26:10;;;;;;;;;64.50;53.00;;;;;10.10;51.51;99789.88;5024431;28;8860;-77
2023/04/10 10:28:41;;;;;;;;;59.50;45.50;;;;;10.67;49.88;99789.00;5019506;28;9545;-77
2023/04/10 10:31:11;;;;;;;;;59.00;48.00;;;;;10.00;51.02;99788.28;5026074;28;9063;-80
2023/04/10 10:33:41;;;;;;;;;60.25;49.25;;;;;9.70;52.35;99789.59;5011519;28;8874;-80
2023/04/10 10:36:12;;;;;;;;;65.00;53.00;;;;;10.25;51.05;99786.16;5025060;28;8941;-77
2023/04/10 10:38:48;;;;;;;;;68.00;53.75;;;;;10.27;52.97;99780.88;5008103;28;8995;-76
2023/04/10 10:41:26;;;;;;;;;58.50;45.25;;;;;10.94;50.75;99766.59;4988087;28;9613;-80
2023/04/10 10:44:06;;;;;;;;;64.00;50.75;;;;;10.53;49.19;99775.19;4972669;28;8871;-75
2023/04/10 10:46:41;;;;;;;;;48.75;39.00;;;;;9.76;48.93;99779.00;5023298;28;8974;-76
2023/04/10 10:49:10;;;;;;;;;58.00;48.00;;;;;9.82;50.46;99758.81;4992461;28;8853;-76
2023/04/10 10:51:46;;;;;;;;;53.50;44.00;;;;;10.35;47.79;99782.50;4978289;28;8885;-77
2023/04/10 10:54:34;;;;;;;;;59.25;45.75;;;;;10.25;47.67;99780.03;5036596;28;9037;-77
2023/04/10 10:57:08;;;;;;;;;56.25;47.00;;;;;10.46;47.29;99769.16;5056879;28;8880;-80
2023/04/10 10:59:58;;;;;;;;;56.25;46.25;;;;;11.43;45.46;99754.22;5076963;28;8843;-80
2023/04/10 11:02:26;;;;;;;;;56.25;45.75;;;;;11.57;46.26;99754.78;5070050;28;8875;-78
2023/04/10 11:04:56;;;;;;;;;50.00;39.00;;;;;10.83;47.95;99759.81;5076864;28;8881;-78
2023/04/10 11:08:09;;;;;;;;;59.00;48.25;;;;;10.82;47.21;99752.81;5054532;28;8889;-79
2023/04/10 11:11:06;;;;;;;;;55.25;44.00;;;;;11.72;46.22;99745.69;4988111;28;9635;-77
2023/04/10 11:13:37;;;;;;;;;56.00;44.50;;;;;10.86;45.86;99762.38;4927610;29;8943;-78
2023/04/10 11:16:10;;;;;;;;;51.75;43.25;;;;;10.93;46.22;99738.56;4930279;29;9043;-77
2023/04/10 11:19:05;;;;;;;;;54.75;46.00;;;;;11.24;45.79;99740.59;4882355;29;8852;-77
2023/04/10 11:22:02;;;;;;;;;50.25;42.00;;;;;11.98;44.48;99735.50;4948721;28;10010;-79
2023/04/10 11:24:52;;;;;;;;;44.50;39.75;;;;;12.86;43.10;99732.41;4948043;28;8889;-76
2023/04/10 11:27:47;;;;;;;;;56.00;44.75;;;;;12.30;43.74;99725.03;4949175;28;8858;-78
2023/04/10 11:30:36;;;;;;;;;55.50;44.50;;;;;11.80;45.51;99731.47;4936336;28;8939;-78
2023/04/10 11:33:06;;;;;;;;;57.25;46.00;;;;;11.72;43.90;99721.97;4918163;28;9854;-77
2023/04/10 11:35:35;;;;;;;;;53.75;46.00;;;;;11.99;44.07;99718.78;4910052;28;8874;-80
2023/04/10 11:38:15;;;;;;;;;48.00;41.50;;;;;12.69;41.72;99711.72;4948918;28;8858;-81
2023/04/10 11:41:01;;;;;;;;;45.25;38.25;;;;;11.99;41.67;99710.88;4925123;29;8982;-78
2023/04/10 11:43:31;;;;;;;;;47.75;39.75;;;;;12.52;41.40;99693.72;4930074;29;8879;-78
2023/04/10 11:46:02;;;;;;;;;54.25;44.50;;;;;11.85;44.65;99703.31;4940948;28;8863;-75
2023/04/10 11:48:32;;;;;;;;;60.00;50.75;;;;;11.56;46.86;99704.81;4977876;28;8872;-81
2023/04/10 11:51:07;;;;;;;;;62.25;50.00;;;;;11.65;48.01;99696.69;5021042;28;8901;-77
2023/04/10 11:53:37;;;;;;;;;60.00;46.25;;;;;12.51;45.99;99691.97;5026032;28;8864;-76
2023/04/10 11:56:15;;;;;;;;;54.75;44.75;;;;;12.96;44.57;99681.97;5043965;28;8887;-77
2023/04/10 11:58:44;;;;;;;;;55.75;48.25;;;;;13.64;43.70;99670.28;5003373;28;8850;-78
2023/04/10 12:01:14;;;;;;;;;54.00;44.00;;;;;13.89;43.23;99673.88;5083800;28;8980;-77
2023/04/10 12:03:44;;;;;;;;;55.25;45.75;;;;;14.51;42.14;99663.88;5062879;28;8858;-78
2023/04/10 12:06:15;;;;;;;;;57.25;46.25;;;;;14.88;40.33;99670.50;5060319;28;8889;-77
2023/04/10 12:08:46;;;;;;;;;59.75;47.75;;;;;15.25;39.55;99664.69;5080400;28;8870;-78
2023/04/10 12:11:19;;;;;;;;;56.50;46.25;;;;;14.73;39.04;99658.69;5073966;28;8881;-77